Flight Track Log - Related Links

Times and Time Zones

All times are in EDT time to prevent confusion due to time zone crossing. See the CTL17 flight status page for this flight to view local times or setup timezone preferences in your user account.

Time Position Orientation Groundspeed Altitude Reporting Facility
EDT Latitude Longitude Course Direction KTS MPH feet Rate Location/Type
Wed 05:48:47 PM 42.2236 -83.5639 255° West 111 128 1,500  Level Cleveland Center
Wed 05:49:48 PM 42.2456 -83.5986 310° West 127 146 2,500 787 Climbing Cleveland Center
Wed 05:50:49 PM 42.2739 -83.6308 320° Northwest 136 157 3,100 639 Climbing Cleveland Center
Wed 05:51:50 PM 42.3094 -83.6242 North 123 142 3,800 656 Climbing Cleveland Center
Wed 05:52:57 PM 42.3353 -83.5917 43° Northeast 131 151 4,500 590 Climbing Cleveland Center
Wed 05:53:52 PM 42.3408 -83.5469 80° East 129 148 5,000 259 Climbing Cleveland Center
Wed 05:54:53 PM 42.3192 -83.4953 120° Southeast 166 191 5,000  Level Cleveland Center
Wed 05:55:54 PM 42.2956 -83.4408 120° Southeast 171 197 5,000  Level Cleveland Center
Wed 05:57:01 PM 42.2742 -83.3753 114° Southeast 165 190 5,000 -47 Level Cleveland Center
Wed 05:58:02 PM 42.2525 -83.3211 118° Southeast 159 183 4,900  Descending Cleveland Center
Wed 05:58:57 PM 42.2392 -83.2700 109° East 156 180 5,000 103 Climbing Cleveland Center
Wed 05:59:58 PM 42.2217 -83.2133 113° Southeast 161 185 5,100  Climbing Cleveland Center
Wed 06:00:58 PM 42.2061 -83.1650 113° Southeast 157 181 5,000 -50 Descending Cleveland Center
Wed 06:01:59 PM 42.1864 -83.1081 115° Southeast 160 184 5,000  Level Cleveland Center
Wed 06:03:00 PM 42.1647 -83.0539 118° Southeast 162 186 5,000  Level Cleveland Center
Wed 06:04:01 PM 42.1389 -82.9997 123° Southeast 167 192 5,000 -49 Level Cleveland Center
Wed 06:05:02 PM 42.1106 -82.9483 127° Southeast 166 191 4,900 49 Descending Cleveland Center
Wed 06:06:03 PM 42.0867 -82.8942 121° Southeast 168 193 5,100 49 Climbing Cleveland Center
Wed 06:07:04 PM 42.0628 -82.8403 121° Southeast 171 197 5,000 -52 Descending Cleveland Center
Wed 06:07:59 PM 42.0408 -82.7919 121° Southeast 170 196 5,000  Level Cleveland Center
Wed 06:08:52 PM 42.0147 -82.7436 126° Southeast 169 194 5,000 78 Level Cleveland Center
Wed 06:09:16 PM 42.0047 -82.7236 124° Southeast 170 196 5,100  Climbing Cleveland Center
Wed 06:10:11 PM 41.9803 -82.6781 126° Southeast 168 193 5,000 -52 Descending Cleveland Center
Wed 06:11:12 PM 41.9564 -82.6242 121° Southeast 168 193 5,000 -50 Level Cleveland Center
Wed 06:12:12 PM 41.9303 -82.5703 123° Southeast 168 193 4,900  Descending Cleveland Center
Wed 06:13:13 PM 41.9042 -82.5167 123° Southeast 168 193 5,000 49 Climbing Cleveland Center
Wed 06:14:14 PM 41.8819 -82.4600 118° Southeast 173 199 5,000  Level Cleveland Center
Wed 06:15:09 PM 41.8578 -82.4119 124° Southeast 170 196 5,000 -99 Level Cleveland Center
Wed 06:16:15 PM 41.8275 -82.3525 124° Southeast 168 193 4,800 -361 Descending Cleveland Center
Wed 06:17:22 PM 41.7992 -82.2906 122° Southeast 184 212 4,200 -563 Descending Cleveland Center
Wed 06:18:23 PM 41.7708 -82.2314 123° Southeast 186 214 3,600 -545 Descending Cleveland Center
Wed 06:19:23 PM 41.7447 -82.1722 121° Southeast 180 207 3,100 -298 Descending Cleveland Center
Wed 06:20:24 PM 41.7183 -82.1214 125° Southeast 171 197 3,000 -49 Descending Cleveland Center
Wed 06:21:25 PM 41.6961 -82.0681 119° Southeast 157 181 3,000 -47 Level Cleveland Center
Wed 06:22:31 PM 41.6611 -82.0200 134° Southeast 157 181 2,900 -94 Descending Cleveland Center
Wed 06:23:32 PM 41.6325 -81.9694 127° Southeast 163 188 2,800 -246 Descending Cleveland Center
Wed 06:24:33 PM 41.6061 -81.9217 126° Southeast 169 194 2,400 -313 Descending Cleveland Center
Wed 06:25:27 PM 41.5817 -81.8739 124° Southeast 173 199 2,200 -209 Descending Cleveland Center
Wed 06:26:28 PM 41.5553 -81.8178 122° Southeast 173 199 2,000 -220 Descending Cleveland Center
Wed 06:27:16 PM 41.5369 -81.7786 122° Southeast 165 190 1,800 -496 Descending Cleveland Center
Wed 06:28:29 PM 41.5061 -81.7172 124° Southeast 143 165 1,000 -658 Descending Cleveland Center

Login

Don't have an account? Register now (free) for customized features, flight alerts, and more!